Terminal Aerodrome Forecast
Issued by NWS

Home | Current Version | Previous Version | Graphics & Text | Print | Product List | Glossary On
Versions: 1 2 3 4 5 6 7 8 9 10 11 12 13 14 15 16 17 18 19 20 21 22 23 24 25 26 27 28 29 30 31 32 33 34 35
000
FTUS43 KLOT 311200 AAA
TAFORD
TAF AMD
KORD 311225Z 3112/0118 18003KT 1 1/2SM BR OVC002
     FM311230 20004KT 3SM BR OVC003
     FM311300 20004KT P6SM FEW004 SCT030
     FM311700 20005KT P6SM SCT030
     FM010200 18006KT P6SM SCT080
     FM011500 21012KT P6SM SCT035 BKN060 PROB30 0115/0118 4SM -TSRA
      BKN035CB=

USA.gov is the U.S. government's official web portal to all federal, state and local government web resources and services.